createdAt,value
2022-08-23T00:01:24.821Z,47.31
2022-08-23T00:03:53.381Z,48.07
2022-08-23T00:06:22.790Z,48.79
2022-08-23T00:08:52.210Z,49.26
2022-08-23T00:11:34.764Z,49.79
2022-08-23T00:14:24.008Z,49.74
2022-08-23T00:16:51.562Z,49.57
2022-08-23T00:19:20.893Z,48.94
2022-08-23T00:21:49.305Z,48.88
2022-08-23T00:24:17.508Z,48.76
2022-08-23T00:27:11.569Z,49.05
2022-08-23T00:29:41.671Z,49.97
2022-08-23T00:32:11.270Z,50.11
2022-08-23T00:34:38.096Z,50.79
2022-08-23T00:37:05.966Z,50.67
2022-08-23T00:39:33.064Z,51.00
2022-08-23T00:42:25.876Z,51.63
2022-08-23T00:45:11.669Z,51.47
2022-08-23T00:47:41.388Z,51.62
2022-08-23T00:50:25.958Z,52.06
2022-08-23T00:53:08.541Z,52.16
2022-08-23T00:55:35.900Z,52.28
2022-08-23T00:58:03.056Z,52.26
2022-08-23T01:00:32.255Z,51.96
2022-08-23T01:02:59.115Z,52.38
2022-08-23T01:05:31.382Z,53.07
2022-08-23T01:08:00.107Z,53.08
2022-08-23T01:10:42.176Z,54.10
2022-08-23T01:13:16.820Z,53.94
2022-08-23T01:15:52.132Z,52.50
2022-08-23T01:18:23.989Z,52.69
2022-08-23T01:21:10.583Z,53.23
2022-08-23T01:23:55.654Z,53.21
2022-08-23T01:26:24.997Z,52.65
2022-08-23T01:28:53.788Z,52.84
2022-08-23T01:31:22.616Z,52.89
2022-08-23T01:33:58.739Z,52.72
2022-08-23T01:36:26.035Z,53.01
2022-08-23T01:38:53.139Z,52.12
2022-08-23T01:41:19.812Z,52.05
2022-08-23T01:43:46.805Z,52.21
2022-08-23T01:46:19.220Z,52.80
2022-08-23T01:48:48.255Z,52.61
2022-08-23T01:51:18.639Z,53.50
2022-08-23T01:53:46.568Z,52.97
2022-08-23T01:56:15.084Z,52.45
2022-08-23T01:58:42.144Z,52.06
2022-08-23T02:01:08.745Z,52.79
2022-08-23T02:03:37.238Z,53.92
2022-08-23T02:06:04.814Z,53.01
2022-08-23T02:08:49.968Z,53.77
2022-08-23T02:11:22.378Z,53.93
2022-08-23T02:13:50.596Z,54.81
2022-08-23T02:16:29.293Z,54.47
2022-08-23T02:18:56.580Z,53.07
2022-08-23T02:21:24.266Z,51.87
2022-08-23T02:23:54.159Z,51.43
2022-08-23T02:26:20.833Z,50.59
2022-08-23T02:28:57.972Z,49.10
2022-08-23T02:31:26.203Z,49.64
2022-08-23T02:33:53.649Z,50.94
2022-08-23T02:38:46.880Z,50.87
2022-08-23T02:41:14.255Z,52.59
2022-08-23T02:43:41.197Z,53.76
2022-08-23T02:46:07.911Z,54.65
2022-08-23T02:48:35.515Z,54.90
2022-08-23T02:51:07.872Z,55.11
2022-08-23T02:53:35.133Z,54.65
2022-08-23T02:56:02.340Z,55.05
2022-08-23T02:58:29.279Z,52.74
2022-08-23T03:00:56.165Z,54.14
2022-08-23T03:03:24.822Z,52.96
2022-08-23T03:05:51.794Z,53.39
2022-08-23T03:08:19.399Z,54.88
2022-08-23T03:10:48.385Z,56.26
2022-08-23T03:13:16.541Z,56.79
2022-08-23T03:15:43.309Z,57.31
2022-08-23T03:18:12.908Z,57.68
2022-08-23T03:20:41.755Z,58.32
2022-08-23T03:23:10.450Z,59.07
2022-08-23T03:25:37.999Z,59.72
2022-08-23T03:28:06.270Z,59.64
2022-08-23T03:30:33.994Z,59.56
2022-08-23T03:33:01.661Z,58.63
2022-08-23T03:35:28.706Z,59.23
2022-08-23T03:37:56.324Z,59.59
2022-08-23T03:40:23.166Z,59.57
2022-08-23T03:42:51.179Z,59.22
2022-08-23T03:45:19.938Z,59.47
2022-08-23T03:47:46.518Z,59.91
2022-08-23T03:50:13.565Z,57.81
2022-08-23T03:52:40.390Z,55.74
2022-08-23T03:55:07.347Z,55.98
2022-08-23T03:57:34.587Z,57.04
2022-08-23T04:00:01.286Z,57.66
2022-08-23T04:02:27.907Z,57.90
2022-08-23T04:04:54.636Z,57.93
2022-08-23T04:07:21.802Z,58.27
2022-08-23T04:09:50.906Z,57.57
2022-08-23T04:12:23.328Z,57.34
2022-08-23T04:14:49.987Z,56.94
2022-08-23T04:17:17.861Z,56.31
2022-08-23T04:19:44.474Z,54.98
2022-08-23T04:22:13.844Z,54.86
2022-08-23T04:24:42.037Z,55.24
2022-08-23T04:27:09.334Z,54.03
2022-08-23T04:29:36.253Z,54.30
2022-08-23T04:32:05.631Z,53.55
2022-08-23T04:34:35.976Z,52.95
2022-08-23T04:37:02.720Z,54.78
2022-08-23T04:39:29.695Z,53.96
2022-08-23T04:42:15.124Z,53.90
2022-08-23T04:44:42.004Z,55.11
2022-08-23T04:47:08.639Z,52.92
2022-08-23T04:49:35.400Z,52.88
2022-08-23T04:52:02.291Z,51.80
2022-08-23T04:54:29.386Z,51.87
2022-08-23T04:56:56.557Z,52.67
2022-08-23T04:59:23.351Z,52.05
2022-08-23T05:01:50.864Z,51.04
2022-08-23T05:04:18.062Z,51.53
2022-08-23T05:06:45.882Z,53.11
2022-08-23T05:09:17.117Z,54.55
2022-08-23T05:11:46.632Z,54.85
2022-08-23T05:14:13.336Z,55.57
2022-08-23T05:16:39.996Z,56.35
2022-08-23T05:19:06.617Z,55.35
2022-08-23T05:21:33.278Z,55.17
2022-08-23T05:24:00.871Z,55.27
2022-08-23T05:26:30.584Z,54.53
2022-08-23T05:28:57.295Z,54.35
2022-08-23T05:31:26.468Z,54.82
2022-08-23T05:33:53.860Z,53.43
2022-08-23T05:36:22.149Z,53.14
2022-08-23T05:38:50.165Z,53.55
2022-08-23T05:41:18.006Z,53.02
2022-08-23T05:43:48.210Z,53.02
2022-08-23T05:46:18.427Z,50.97
2022-08-23T05:48:49.322Z,52.09
2022-08-23T05:51:27.822Z,51.87
2022-08-23T05:53:57.241Z,51.98
2022-08-23T05:56:34.252Z,51.65
2022-08-23T05:59:05.759Z,52.59
2022-08-23T06:01:40.494Z,53.56
2022-08-23T06:04:12.064Z,52.42
2022-08-23T06:06:41.585Z,52.42
2022-08-23T06:09:11.715Z,53.01
2022-08-23T06:11:38.384Z,53.60
2022-08-23T06:14:07.236Z,52.60
2022-08-23T06:16:40.330Z,52.53
2022-08-23T06:19:08.700Z,53.40
2022-08-23T06:21:36.536Z,51.30
2022-08-23T06:24:03.506Z,52.04
2022-08-23T06:26:33.317Z,51.92
2022-08-23T06:29:03.397Z,52.13
2022-08-23T06:31:45.785Z,50.49
2022-08-23T06:34:24.468Z,51.22
2022-08-23T06:36:53.730Z,50.58
2022-08-23T06:39:22.276Z,51.56
2022-08-23T06:41:49.491Z,50.42
2022-08-23T06:44:18.485Z,49.09
2022-08-23T06:46:48.055Z,48.98
2022-08-23T06:49:15.856Z,49.76
2022-08-23T06:51:45.120Z,49.49
2022-08-23T06:54:14.697Z,48.43
2022-08-23T06:56:42.980Z,47.24
2022-08-23T06:59:09.655Z,46.55
2022-08-23T07:01:51.303Z,45.86
2022-08-23T07:04:32.160Z,47.32
2022-08-23T07:06:59.907Z,47.17
2022-08-23T07:09:27.164Z,49.14
2022-08-23T07:11:54.471Z,48.33
2022-08-23T07:14:22.564Z,49.38
2022-08-23T07:16:52.463Z,46.75
2022-08-23T07:19:22.088Z,47.04
2022-08-23T07:21:56.360Z,48.71
2022-08-23T07:24:23.228Z,47.70
2022-08-23T07:26:52.139Z,46.81
2022-08-23T07:29:20.468Z,47.58
2022-08-23T07:31:51.228Z,44.85
2022-08-23T07:34:18.022Z,45.38
2022-08-23T07:36:46.910Z,46.39
2022-08-23T07:39:14.493Z,46.47
2022-08-23T07:41:42.033Z,47.90
2022-08-23T07:44:10.773Z,48.35
2022-08-23T07:46:43.161Z,48.51
2022-08-23T07:49:12.003Z,48.50
2022-08-23T07:51:40.901Z,48.81
2022-08-23T07:54:10.505Z,45.39
2022-08-23T07:56:37.856Z,45.05
2022-08-23T07:59:05.798Z,44.61
2022-08-23T08:01:32.898Z,46.28
2022-08-23T08:04:02.063Z,46.57
2022-08-23T08:06:59.951Z,47.49
2022-08-23T08:09:35.031Z,47.37
2022-08-23T08:12:01.799Z,48.00
2022-08-23T08:14:28.658Z,46.57
2022-08-23T08:16:58.646Z,45.87
2022-08-23T08:19:25.511Z,44.81
2022-08-23T08:21:53.906Z,45.03
2022-08-23T08:24:20.577Z,45.28
2022-08-23T08:26:47.469Z,48.38
2022-08-23T08:29:14.348Z,47.52
2022-08-23T08:31:44.437Z,45.73
2022-08-23T08:34:12.043Z,46.52
2022-08-23T08:36:49.606Z,47.20
2022-08-23T08:39:22.804Z,47.85
2022-08-23T08:42:13.671Z,47.63
2022-08-23T08:45:03.267Z,45.90
2022-08-23T08:47:50.932Z,47.52
2022-08-23T08:50:33.785Z,45.43
2022-08-23T08:53:21.798Z,45.61
2022-08-23T08:55:52.972Z,47.46
2022-08-23T08:58:29.904Z,46.64
2022-08-23T09:00:57.017Z,48.34
2022-08-23T09:03:27.205Z,46.07
2022-08-23T09:06:11.179Z,45.35
2022-08-23T09:08:40.378Z,46.16
2022-08-23T09:11:30.347Z,46.12
2022-08-23T09:14:09.591Z,45.59
2022-08-23T09:17:02.561Z,47.92
2022-08-23T09:19:33.453Z,47.66
2022-08-23T09:22:11.579Z,44.52
2022-08-23T09:24:38.250Z,46.92
2022-08-23T09:27:06.527Z,47.69
2022-08-23T09:29:35.531Z,44.42
2022-08-23T09:32:06.522Z,43.10
2022-08-23T09:34:36.042Z,43.85
2022-08-23T09:37:11.705Z,45.29
2022-08-23T09:39:42.110Z,45.86
2022-08-23T09:42:30.953Z,45.15
2022-08-23T09:44:58.156Z,46.11
2022-08-23T09:47:44.643Z,45.76
2022-08-23T09:50:30.237Z,46.43
2022-08-23T09:53:04.321Z,45.33
2022-08-23T09:55:41.998Z,45.65
2022-08-23T09:58:36.564Z,44.66
2022-08-23T10:01:06.226Z,43.14
2022-08-23T10:03:32.945Z,44.48
2022-08-23T10:06:01.345Z,42.55
2022-08-23T10:08:34.124Z,43.59
2022-08-23T10:11:24.268Z,43.26
2022-08-23T10:13:52.382Z,42.35
2022-08-23T10:16:40.743Z,43.26
2022-08-23T10:19:25.969Z,43.09
2022-08-23T10:22:18.957Z,42.09
2022-08-23T10:25:00.704Z,43.30
2022-08-23T10:28:16.299Z,43.44
2022-08-23T10:31:18.358Z,42.67
2022-08-23T10:34:09.560Z,42.45
2022-08-23T10:37:21.182Z,39.76
2022-08-23T10:40:20.251Z,40.07
2022-08-23T10:42:46.793Z,41.90
2022-08-23T10:45:28.955Z,41.70
2022-08-23T10:48:31.800Z,41.99
2022-08-23T10:51:03.746Z,42.31
2022-08-23T10:53:36.091Z,42.35
2022-08-23T10:56:03.244Z,41.71
2022-08-23T10:58:41.550Z,40.22
2022-08-23T11:01:12.510Z,40.42
2022-08-23T11:03:56.619Z,41.10
2022-08-23T11:06:36.278Z,36.45
2022-08-23T11:09:08.622Z,39.13
2022-08-23T11:11:46.375Z,39.87
2022-08-23T11:14:41.813Z,39.85
2022-08-23T11:17:25.532Z,39.53
2022-08-23T11:19:54.397Z,40.00
2022-08-23T11:22:27.834Z,37.86
2022-08-23T11:24:56.130Z,36.69
2022-08-23T11:27:34.539Z,39.22
2022-08-23T11:30:32.228Z,38.91
2022-08-23T11:33:11.514Z,39.81
2022-08-23T11:35:43.403Z,39.80
2022-08-23T11:38:11.989Z,38.75
2022-08-23T11:40:55.865Z,39.56
2022-08-23T11:43:25.439Z,38.93
2022-08-23T11:45:52.113Z,40.39
2022-08-23T11:48:43.441Z,39.95
2022-08-23T11:51:39.341Z,39.37
2022-08-23T11:54:32.394Z,38.52
2022-08-23T11:57:19.043Z,37.31
2022-08-23T12:00:11.408Z,38.51
2022-08-23T12:02:41.016Z,37.54
2022-08-23T12:05:22.855Z,38.42
2022-08-23T12:07:54.191Z,36.51
2022-08-23T12:10:44.203Z,38.25
2022-08-23T12:13:48.592Z,39.02
2022-08-23T12:16:17.486Z,38.22
2022-08-23T12:18:47.782Z,38.35
2022-08-23T12:21:27.092Z,35.37
2022-08-23T12:24:01.186Z,36.90
2022-08-23T12:26:40.615Z,34.52
2022-08-23T12:29:36.978Z,35.62
2022-08-23T12:32:31.922Z,36.50
2022-08-23T12:35:30.242Z,37.68
2022-08-23T12:38:06.013Z,37.95
2022-08-23T12:40:42.050Z,38.61
2022-08-23T12:43:23.117Z,34.31
2022-08-23T12:45:59.429Z,32.68
2022-08-23T12:48:32.871Z,33.16
2022-08-23T12:51:04.098Z,33.94
2022-08-23T12:53:33.565Z,33.20
2022-08-23T12:56:04.447Z,35.49
2022-08-23T12:58:34.797Z,36.44
2022-08-23T13:01:07.117Z,35.52
2022-08-23T13:03:39.088Z,37.19
2022-08-23T13:06:16.329Z,37.55
2022-08-23T13:09:25.286Z,38.42
2022-08-23T13:11:52.535Z,38.66
2022-08-23T13:14:34.471Z,38.93
2022-08-23T13:17:13.304Z,38.50
2022-08-23T13:19:40.409Z,38.82
2022-08-23T13:22:22.479Z,39.13
2022-08-23T13:27:53.267Z,39.62
2022-08-23T13:30:24.313Z,40.19
2022-08-23T13:33:07.749Z,39.74
2022-08-23T13:35:38.600Z,39.28
2022-08-23T13:38:08.275Z,39.97
2022-08-23T13:41:00.897Z,40.29
2022-08-23T13:43:34.180Z,40.78
2022-08-23T13:46:23.278Z,40.13
2022-08-23T13:49:27.483Z,40.94
2022-08-23T13:52:41.332Z,41.85
2022-08-23T13:54:54.535Z,41.58
2022-08-23T13:57:22.550Z,41.29
2022-08-23T13:59:50.911Z,41.49
2022-08-23T14:02:20.898Z,40.99
2022-08-23T14:04:47.779Z,39.98
2022-08-23T14:07:15.372Z,38.50
2022-08-23T14:09:42.709Z,39.61
2022-08-23T14:12:14.735Z,38.74
2022-08-23T14:14:42.975Z,39.59
2022-08-23T14:17:13.053Z,39.17
2022-08-23T14:22:33.427Z,39.14
2022-08-23T14:25:00.023Z,38.88
2022-08-23T14:27:26.882Z,39.58
2022-08-23T14:29:54.352Z,40.10
2022-08-23T14:32:21.126Z,39.96
2022-08-23T14:34:47.715Z,39.45
2022-08-23T14:38:02.411Z,40.28
2022-08-23T14:40:01.260Z,38.62
2022-08-23T14:42:28.044Z,39.46
2022-08-23T14:44:54.704Z,38.92
2022-08-23T14:47:21.381Z,39.04
2022-08-23T14:49:52.000Z,39.90
2022-08-23T14:52:20.680Z,40.10
2022-08-23T14:54:47.297Z,39.89
2022-08-23T14:57:13.986Z,40.06
2022-08-23T14:59:41.106Z,39.72
2022-08-23T15:02:10.869Z,39.50
2022-08-23T15:04:38.554Z,39.85
2022-08-23T15:07:21.187Z,40.74
2022-08-23T15:09:49.668Z,40.89
2022-08-23T15:15:12.434Z,41.35
2022-08-23T15:17:47.983Z,41.28
2022-08-23T15:20:14.966Z,40.99
2022-08-23T15:22:45.002Z,39.21
2022-08-23T15:25:23.198Z,38.68
2022-08-23T15:27:50.950Z,38.91
2022-08-23T15:30:18.204Z,39.03
2022-08-23T15:32:52.237Z,38.18
2022-08-23T15:35:21.881Z,38.02
2022-08-23T15:37:49.115Z,38.91
2022-08-23T15:40:15.924Z,39.94
2022-08-23T15:42:42.803Z,39.96
2022-08-23T15:45:10.022Z,41.03
2022-08-23T15:47:47.942Z,41.49
2022-08-23T15:50:15.092Z,39.63
2022-08-23T15:52:41.761Z,39.82
2022-08-23T15:55:08.764Z,39.59
2022-08-23T15:57:43.059Z,38.93
2022-08-23T16:00:11.554Z,39.63
2022-08-23T16:03:04.376Z,40.24
2022-08-23T16:05:25.356Z,39.70
2022-08-23T16:07:55.708Z,40.62
2022-08-23T16:10:25.220Z,39.44
2022-08-23T16:12:54.755Z,41.13
2022-08-23T16:15:21.357Z,40.83
2022-08-23T16:17:48.638Z,37.80
2022-08-23T16:20:15.430Z,39.90
2022-08-23T16:22:42.058Z,40.19
2022-08-23T16:25:09.161Z,40.58
2022-08-23T16:27:36.105Z,40.99
2022-08-23T16:30:04.795Z,39.85
2022-08-23T16:32:31.426Z,41.23
2022-08-23T16:34:58.077Z,40.38
2022-08-23T16:37:25.587Z,40.78
2022-08-23T16:39:52.299Z,40.76
2022-08-23T16:42:19.317Z,41.30
2022-08-23T16:44:45.956Z,40.37
2022-08-23T16:47:13.148Z,39.83
2022-08-23T16:49:43.255Z,40.70
2022-08-23T16:52:10.757Z,40.34
2022-08-23T16:54:38.086Z,39.76
2022-08-23T16:57:05.268Z,38.14
2022-08-23T16:59:31.942Z,40.31
2022-08-23T17:02:01.875Z,40.16
2022-08-23T17:04:37.759Z,40.05
2022-08-23T17:07:04.730Z,39.57
2022-08-23T17:09:31.599Z,39.76
2022-08-23T17:11:58.722Z,40.57
2022-08-23T17:14:26.230Z,39.82
2022-08-23T17:16:53.224Z,40.39
2022-08-23T17:19:19.993Z,40.67
2022-08-23T17:21:47.972Z,40.44
2022-08-23T17:24:14.673Z,40.55
2022-08-23T17:26:41.554Z,39.02
2022-08-23T17:29:09.574Z,40.66
2022-08-23T17:31:36.914Z,40.90
2022-08-23T17:34:04.056Z,40.74
2022-08-23T17:36:39.251Z,41.03
2022-08-23T17:39:09.481Z,40.22
2022-08-23T17:41:36.848Z,41.38
2022-08-23T17:44:05.064Z,40.35
2022-08-23T17:46:35.200Z,40.27
2022-08-23T17:49:02.015Z,39.86
2022-08-23T17:51:28.645Z,40.76
2022-08-23T17:53:55.348Z,40.76
2022-08-23T17:56:22.285Z,41.03
2022-08-23T17:58:49.401Z,41.19
2022-08-23T18:01:16.265Z,40.43
2022-08-23T18:03:43.588Z,40.93
2022-08-23T18:06:14.353Z,41.37
2022-08-23T18:08:43.828Z,41.28
2022-08-23T18:11:10.636Z,41.25
2022-08-23T18:13:37.305Z,41.36
2022-08-23T18:16:04.488Z,41.58
2022-08-23T18:18:31.161Z,41.05
2022-08-23T18:20:57.882Z,40.67
2022-08-23T18:23:24.488Z,41.66
2022-08-23T18:25:51.134Z,41.20
2022-08-23T18:28:18.154Z,41.77
2022-08-23T18:30:50.142Z,40.66
2022-08-23T18:33:18.751Z,40.86
2022-08-23T18:35:46.980Z,41.34
2022-08-23T18:38:14.329Z,40.97
2022-08-23T18:40:46.290Z,41.24
2022-08-23T18:43:19.109Z,42.15
2022-08-23T18:45:48.498Z,42.07
2022-08-23T18:48:15.651Z,41.85
2022-08-23T18:50:42.982Z,41.84
2022-08-23T18:53:12.573Z,42.20
2022-08-23T18:55:40.584Z,41.88
2022-08-23T18:58:08.091Z,41.89
2022-08-23T19:00:36.093Z,42.58
2022-08-23T19:03:04.433Z,42.43
2022-08-23T19:05:41.545Z,42.94
2022-08-23T19:08:10.751Z,42.73
2022-08-23T19:10:38.461Z,42.05
2022-08-23T19:13:05.463Z,42.67
2022-08-23T19:15:34.402Z,42.54
2022-08-23T19:18:01.776Z,42.94
2022-08-23T19:20:29.354Z,43.00
2022-08-23T19:22:58.179Z,42.86
2022-08-23T19:25:25.295Z,42.85
2022-08-23T19:27:53.558Z,43.34
2022-08-23T19:30:20.315Z,43.10
2022-08-23T19:32:47.132Z,43.39
2022-08-23T19:35:14.528Z,42.70
2022-08-23T19:37:41.533Z,42.47
2022-08-23T19:40:08.859Z,43.37
2022-08-23T19:42:37.342Z,42.73
2022-08-23T19:45:05.238Z,43.10
2022-08-23T19:47:32.169Z,43.60
2022-08-23T19:49:59.021Z,43.38
2022-08-23T19:52:26.198Z,42.71
2022-08-23T19:54:53.291Z,43.12
2022-08-23T19:57:20.422Z,43.40
2022-08-23T19:59:47.093Z,43.87
2022-08-23T20:02:14.495Z,43.96
2022-08-23T20:04:41.740Z,43.43
2022-08-23T20:07:09.160Z,43.57
2022-08-23T20:09:35.860Z,43.60
2022-08-23T20:12:03.267Z,44.19
2022-08-23T20:14:31.310Z,44.31
2022-08-23T20:16:57.985Z,44.13
2022-08-23T20:19:25.483Z,43.75
2022-08-23T20:21:52.266Z,44.26
2022-08-23T20:24:28.856Z,44.12
2022-08-23T20:27:06.128Z,44.57
2022-08-23T20:29:32.726Z,44.17
2022-08-23T20:32:00.330Z,44.34
2022-08-23T20:34:28.378Z,44.21
2022-08-23T20:36:56.291Z,44.60
2022-08-23T20:39:24.473Z,44.59
2022-08-23T20:41:52.080Z,45.10
2022-08-23T20:44:21.100Z,44.93
2022-08-23T20:46:53.188Z,44.91
2022-08-23T20:49:21.627Z,45.40
2022-08-23T20:51:48.846Z,44.66
2022-08-23T20:54:16.991Z,44.72
2022-08-23T20:56:43.856Z,45.25
2022-08-23T20:59:10.591Z,44.55
2022-08-23T21:01:37.278Z,44.50
2022-08-23T21:04:05.442Z,44.47
2022-08-23T21:06:38.753Z,44.74
2022-08-23T21:09:05.611Z,44.70
2022-08-23T21:11:32.303Z,45.04
2022-08-23T21:13:59.070Z,45.28
2022-08-23T21:16:26.383Z,45.07
2022-08-23T21:18:55.368Z,45.28
2022-08-23T21:21:25.679Z,45.27
2022-08-23T21:23:52.691Z,45.24
2022-08-23T21:26:19.818Z,45.74
2022-08-23T21:28:46.701Z,45.88
2022-08-23T21:31:16.567Z,46.12
2022-08-23T21:33:44.732Z,46.51
2022-08-23T21:36:13.309Z,46.72
2022-08-23T21:38:40.146Z,46.59
2022-08-23T21:41:10.203Z,47.46
2022-08-23T21:43:38.126Z,47.21
2022-08-23T21:46:07.157Z,47.32
2022-08-23T21:48:34.069Z,47.50
2022-08-23T21:51:01.173Z,47.35
2022-08-23T21:53:27.819Z,47.33
2022-08-23T21:55:54.407Z,47.56
2022-08-23T21:58:21.031Z,47.51
2022-08-23T22:00:47.837Z,47.91
2022-08-23T22:03:14.725Z,48.19
2022-08-23T22:05:42.840Z,47.72
2022-08-23T22:08:14.304Z,46.80
2022-08-23T22:10:44.887Z,47.42
2022-08-23T22:13:28.757Z,47.65
2022-08-23T22:15:59.289Z,47.85
2022-08-23T22:18:29.258Z,48.09
2022-08-23T22:20:56.056Z,46.58
2022-08-23T22:23:22.659Z,47.62
2022-08-23T22:25:49.279Z,48.12
2022-08-23T22:28:15.892Z,48.47
2022-08-23T22:30:43.194Z,48.89
2022-08-23T22:33:11.175Z,48.86
2022-08-23T22:35:37.850Z,48.46
2022-08-23T22:38:13.729Z,49.01
2022-08-23T22:40:48.220Z,48.87
2022-08-23T22:43:15.140Z,47.94
2022-08-23T22:45:50.672Z,47.22
2022-08-23T22:48:17.451Z,47.74
2022-08-23T22:50:44.358Z,47.58
2022-08-23T22:53:11.000Z,47.47
2022-08-23T22:55:38.070Z,47.61
2022-08-23T22:58:04.848Z,48.06
2022-08-23T23:00:31.469Z,48.10
2022-08-23T23:02:59.611Z,48.63
2022-08-23T23:05:26.283Z,47.47
2022-08-23T23:08:12.987Z,46.92
2022-08-23T23:10:39.673Z,47.20
2022-08-23T23:13:06.450Z,46.67
2022-08-23T23:15:33.140Z,47.12
2022-08-23T23:17:59.831Z,47.50
2022-08-23T23:20:39.076Z,47.11
2022-08-23T23:23:15.408Z,46.45
2022-08-23T23:25:43.108Z,47.39
2022-08-23T23:28:10.423Z,48.19
2022-08-23T23:30:37.136Z,48.49
2022-08-23T23:33:04.247Z,48.70
2022-08-23T23:35:30.905Z,49.18
2022-08-23T23:37:58.465Z,49.92
2022-08-23T23:40:26.114Z,50.33
2022-08-23T23:42:53.195Z,50.44
2022-08-23T23:45:20.847Z,50.63
2022-08-23T23:47:47.635Z,51.05
2022-08-23T23:50:14.579Z,51.04
2022-08-23T23:52:42.023Z,50.89
2022-08-23T23:55:11.735Z,50.80
2022-08-23T23:57:39.078Z,51.05
